Time;durP1;ratioP1;P1;durP2;ratioP2;P2;SDS_P1;SDS_P2;PMS_P1;PMS_P2;Temp;Humidity;BMP_temperature;BMP_pressure;BME280_temperature;BME280_humidity;BME280_pressure;Samples;Min_cycle;Max_cycle;Signal;HPM_P1;HPM_P2
2022/05/18 00:00:17;;;;;;;41.25;16.83;;;;;;;14.26;84.53;101736.50;5092749;28;20044;-42
2022/05/18 00:02:42;;;;;;;28.52;16.73;;;;;;;14.18;84.57;101743.16;5091993;28;20035;-43
2022/05/18 00:05:09;;;;;;;28.30;16.02;;;;;;;14.13;84.67;101741.31;5092881;28;20099;-42
2022/05/18 00:07:34;;;;;;;33.60;16.90;;;;;;;14.05;84.30;101741.97;5092802;28;20035;-41
2022/05/18 00:10:00;;;;;;;33.78;17.88;;;;;;;14.01;85.35;101740.97;5091940;28;20028;-44
2022/05/18 00:12:25;;;;;;;34.15;18.17;;;;;;;14.02;86.24;101742.75;5092912;28;20478;-41
2022/05/18 00:14:51;;;;;;;30.83;17.83;;;;;;;13.99;85.75;101748.72;5092653;28;20462;-40
2022/05/18 00:17:17;;;;;;;31.83;17.83;;;;;;;13.97;85.84;101744.31;5092055;28;20041;-42
2022/05/18 00:19:42;;;;;;;31.67;18.70;;;;;;;13.91;85.95;101738.94;5092570;28;20020;-42
2022/05/18 00:22:07;;;;;;;35.65;18.63;;;;;;;13.89;86.32;101749.28;5092689;28;20032;-42
2022/05/18 00:24:32;;;;;;;38.47;17.88;;;;;;;13.88;86.61;101749.19;5091859;28;20035;-42
2022/05/18 00:26:57;;;;;;;34.65;18.50;;;;;;;13.86;86.48;101746.56;5092654;28;20473;-41
2022/05/18 00:29:23;;;;;;;35.88;18.70;;;;;;;13.88;87.98;101749.19;5092756;28;20035;-41
2022/05/18 00:31:49;;;;;;;39.45;19.67;;;;;;;13.91;87.97;101750.19;5091596;28;20028;-41
2022/05/18 00:34:16;;;;;;;33.92;18.13;;;;;;;13.89;87.56;101757.06;5092584;28;20544;-46
2022/05/18 00:36:42;;;;;;;38.65;18.83;;;;;;;13.84;87.10;101750.84;5092376;28;20020;-44
2022/05/18 00:39:07;;;;;;;34.45;19.00;;;;;;;13.89;88.35;101751.88;5095033;28;20024;-42
2022/05/18 00:41:33;;;;;;;39.40;21.23;;;;;;;13.90;89.81;101747.53;5096489;28;20111;-42
2022/05/18 00:43:58;;;;;;;36.70;20.25;;;;;;;13.90;90.00;101751.00;5096144;28;20032;-41
2022/05/18 00:46:24;;;;;;;39.88;21.30;;;;;;;13.92;90.48;101749.34;5095747;28;20378;-41
2022/05/18 00:48:50;;;;;;;35.63;19.20;;;;;;;13.89;89.44;101746.69;5096097;28;20469;-41
2022/05/18 00:51:27;;;;;;;36.78;19.30;;;;;;;13.87;88.27;101753.53;5095493;28;20036;-41
2022/05/18 00:53:58;;;;;;;38.58;19.92;;;;;;;13.90;89.82;101751.00;5096322;28;20020;-41
2022/05/18 00:56:31;;;;;;;37.20;19.25;;;;;;;13.86;88.40;101746.56;5096055;28;20437;-43
2022/05/18 00:59:01;;;;;;;39.28;19.77;;;;;;;13.82;88.93;101745.59;5095281;28;20146;-41
2022/05/18 01:01:28;;;;;;;39.58;18.85;;;;;;;13.74;88.05;101749.66;5095918;28;20016;-43
2022/05/18 01:03:54;;;;;;;33.15;18.95;;;;;;;13.75;87.36;101747.94;5095970;28;20020;-41
2022/05/18 01:06:29;;;;;;;43.00;19.42;;;;;;;13.74;86.81;101752.25;5095379;28;20027;-42
2022/05/18 01:08:58;;;;;;;29.92;18.38;;;;;;;13.71;87.08;101756.47;5095901;28;20024;-42
2022/05/18 01:11:23;;;;;;;33.67;18.83;;;;;;;13.65;87.34;101751.97;5095831;28;20039;-45
2022/05/18 01:13:49;;;;;;;41.22;20.25;;;;;;;13.61;87.55;101755.31;5094868;28;20028;-45
2022/05/18 01:16:14;;;;;;;41.30;21.23;;;;;;;13.58;87.36;101750.00;5095712;28;20478;-42
2022/05/18 01:18:41;;;;;;;38.40;20.45;;;;;;;13.53;87.77;101757.66;5095667;28;20439;-46
2022/05/18 01:21:07;;;;;;;37.03;21.07;;;;;;;13.48;87.97;101754.91;5094882;28;20355;-43
2022/05/18 01:23:54;;;;;;;40.95;22.27;;;;;;;13.39;88.00;101754.63;5095432;28;20812;-46
2022/05/18 01:26:45;;;;;;;38.10;23.17;;;;;;;13.38;87.27;101746.81;5095598;28;20043;-44
2022/05/18 01:29:11;;;;;;;35.58;21.30;;;;;;;13.24;88.02;101751.50;5095445;28;20527;-46
2022/05/18 01:31:51;;;;;;;40.13;22.58;;;;;;;13.22;88.16;101746.25;5095232;28;20032;-45
2022/05/18 01:34:21;;;;;;;47.22;23.55;;;;;;;13.18;89.01;101745.28;5094848;28;20016;-46
2022/05/18 01:36:47;;;;;;;47.88;23.30;;;;;;;13.15;88.77;101754.63;5095106;28;20024;-45
2022/05/18 01:39:18;;;;;;;49.87;25.93;;;;;;;13.14;89.17;101750.28;5095322;28;20020;-43
2022/05/18 01:41:52;;;;;;;47.63;27.70;;;;;;;13.13;89.72;101752.00;5094468;28;20031;-45
2022/05/18 01:44:17;;;;;;;45.72;24.27;;;;;;;13.11;89.53;101752.78;5095338;28;20046;-46
2022/05/18 01:46:43;;;;;;;48.92;27.55;;;;;;;13.16;91.19;101751.22;5095071;28;20479;-45
2022/05/18 01:49:08;;;;;;;48.63;26.48;;;;;;;13.16;91.08;101754.69;5094286;28;20024;-45
2022/05/18 01:51:45;;;;;;;52.13;26.77;;;;;;;13.21;91.52;101748.78;5094658;28;20067;-46
2022/05/18 01:54:12;;;;;;;46.80;29.08;;;;;;;13.21;92.38;101748.78;5095337;28;20102;-44
2022/05/18 01:56:38;;;;;;;44.58;26.17;;;;;;;13.16;91.35;101746.91;5094125;28;20020;-42
2022/05/18 01:59:03;;;;;;;45.50;26.20;;;;;;;13.21;91.44;101746.19;5095136;28;20475;-46
2022/05/18 02:01:29;;;;;;;54.10;29.10;;;;;;;13.23;92.30;101752.31;5094826;28;20039;-46
2022/05/18 02:03:54;;;;;;;51.72;27.95;;;;;;;13.22;92.10;101747.97;5093932;28;20016;-46
2022/05/18 02:06:20;;;;;;;53.88;28.80;;;;;;;13.24;92.75;101749.75;5094772;28;20546;-45
2022/05/18 02:08:45;;;;;;;52.75;28.83;;;;;;;13.26;93.12;101755.00;5093955;28;20477;-44
2022/05/18 02:11:13;;;;;;;55.00;29.08;;;;;;;13.25;92.42;101750.66;5094761;28;20032;-47
2022/05/18 02:13:38;;;;;;;52.88;27.48;;;;;;;13.27;92.64;101749.88;5094530;28;20050;-45
2022/05/18 02:16:03;;;;;;;52.40;28.85;;;;;;;13.29;92.99;101750.78;5093860;28;20028;-45
2022/05/18 02:18:29;;;;;;;48.38;25.85;;;;;;;13.29;91.65;101749.94;5094331;28;20101;-44
2022/05/18 02:20:54;;;;;;;55.67;29.10;;;;;;;13.26;92.65;101749.81;5094323;28;20093;-47
2022/05/18 02:23:19;;;;;;;49.78;28.65;;;;;;;13.27;93.01;101746.41;5093851;28;20417;-43
2022/05/18 02:25:44;;;;;;;55.78;29.08;;;;;;;13.25;93.35;101751.53;5094129;28;20090;-42
2022/05/18 02:28:10;;;;;;;56.42;29.63;;;;;;;13.25;93.35;101745.50;5094528;28;20028;-45
2022/05/18 02:30:35;;;;;;;55.80;29.73;;;;;;;13.25;93.65;101746.34;5093501;28;20107;-46
2022/05/18 02:33:01;;;;;;;52.53;29.15;;;;;;;13.27;93.35;101738.63;5094085;28;20513;-44
2022/05/18 02:35:26;;;;;;;56.70;29.15;;;;;;;13.24;93.44;101741.13;5094097;28;20020;-43
2022/05/18 02:37:51;;;;;;;53.90;30.08;;;;;;;13.25;93.38;101736.00;5093383;28;20041;-45
2022/05/18 02:40:17;;;;;;;53.55;28.48;;;;;;;13.26;93.59;101742.03;5094246;28;20031;-45
2022/05/18 02:42:42;;;;;;;59.83;29.25;;;;;;;13.28;93.40;101745.56;5093729;28;20039;-43
2022/05/18 02:45:08;;;;;;;59.13;29.23;;;;;;;13.32;93.59;101748.31;5093363;28;20383;-45
2022/05/18 02:47:33;;;;;;;54.00;28.92;;;;;;;13.35;93.57;101747.53;5093923;28;20039;-44
2022/05/18 02:49:59;;;;;;;50.92;28.25;;;;;;;13.34;93.51;101745.78;5093858;28;20050;-45
2022/05/18 02:52:24;;;;;;;51.67;28.67;;;;;;;13.35;93.36;101752.72;5093100;28;20407;-45
2022/05/18 02:57:33;;;;;;;49.70;28.58;;;;;;;13.34;93.27;101748.38;5094084;28;20168;-45
2022/05/18 02:59:58;;;;;;;50.10;27.10;;;;;;;13.36;93.58;101744.09;5092420;28;20491;-46
2022/05/18 03:02:24;;;;;;;53.67;27.58;;;;;;;13.36;93.36;101746.69;5093662;28;20035;-45
2022/05/18 03:04:49;;;;;;;46.97;25.63;;;;;;;13.40;93.12;101751.19;5093638;28;20020;-45
2022/05/18 03:07:14;;;;;;;53.35;27.08;;;;;;;13.40;93.34;101746.03;5092871;28;20028;-46
2022/05/18 03:09:40;;;;;;;53.22;25.38;;;;;;;13.40;92.64;101752.88;5093462;28;20425;-46
2022/05/18 03:12:05;;;;;;;55.17;25.67;;;;;;;13.37;93.27;101753.66;5092945;28;20035;-45
2022/05/18 03:14:31;;;;;;;52.13;25.38;;;;;;;13.37;93.49;101761.44;5093545;28;20105;-46
2022/05/18 03:16:58;;;;;;;47.53;25.15;;;;;;;13.39;93.18;101761.47;5093339;28;20078;-44
2022/05/18 03:19:23;;;;;;;47.20;23.38;;;;;;;13.42;92.64;101759.88;5093034;28;20044;-46
2022/05/18 03:24:32;;;;;;;54.80;24.02;;;;;;;13.47;92.59;101766.09;5093597;28;20043;-44
2022/05/18 03:26:58;;;;;;;44.00;23.95;;;;;;;13.49;92.73;101771.31;5092408;28;20024;-45
2022/05/18 03:29:23;;;;;;;43.42;23.17;;;;;;;13.50;92.88;101773.97;5093188;28;20027;-46
2022/05/18 03:31:49;;;;;;;49.33;24.95;;;;;;;13.59;93.39;101773.38;5093116;28;20058;-43
2022/05/18 03:34:15;;;;;;;46.80;24.98;;;;;;;13.66;93.16;101782.25;5092564;28;20032;-46
2022/05/18 03:36:40;;;;;;;41.55;23.95;;;;;;;13.72;92.90;101790.19;5092964;28;20028;-41
2022/05/18 03:39:08;;;;;;;42.85;23.35;;;;;;;13.79;92.71;101786.09;5093084;28;20020;-47
2022/05/18 03:41:34;;;;;;;45.95;25.20;;;;;;;13.85;92.42;101785.41;5092367;28;20119;-45
2022/05/18 03:44:01;;;;;;;49.28;25.35;;;;;;;13.89;91.92;101782.06;5092941;28;20024;-44
2022/05/18 03:46:26;;;;;;;45.35;24.75;;;;;;;13.90;91.96;101783.81;5093324;28;20028;-43
2022/05/18 03:48:52;;;;;;;52.05;24.23;;;;;;;13.93;91.77;101784.81;5092209;28;20028;-41
2022/05/18 03:51:17;;;;;;;45.63;24.83;;;;;;;13.93;92.00;101783.91;5093112;28;20040;-44
2022/05/18 03:53:42;;;;;;;46.42;24.35;;;;;;;13.96;91.65;101773.66;5092777;28;20020;-41
2022/05/18 03:56:08;;;;;;;58.15;26.08;;;;;;;13.99;91.80;101784.09;5092290;28;20045;-46
2022/05/18 03:58:34;;;;;;;50.35;25.15;;;;;;;13.99;91.74;101785.00;5092818;28;20016;-42
2022/05/18 04:01:00;;;;;;;48.40;26.38;;;;;;;14.03;91.62;101785.94;5092982;28;20051;-42
2022/05/18 04:03:27;;;;;;;54.72;27.70;;;;;;;14.05;91.87;101794.66;5092369;28;20379;-43
2022/05/18 04:05:53;;;;;;;54.28;27.40;;;;;;;14.10;91.97;101790.50;5092871;28;20031;-46
2022/05/18 04:08:19;;;;;;;46.58;26.45;;;;;;;14.11;91.84;101789.69;5092268;28;20036;-41
2022/05/18 04:10:45;;;;;;;55.70;27.05;;;;;;;14.21;91.55;101782.16;5092607;28;20081;-47
2022/05/18 04:13:19;;;;;;;55.28;28.63;;;;;;;14.30;91.02;101791.06;5094810;28;20024;-43
2022/05/18 04:15:44;;;;;;;55.35;26.80;;;;;;;14.40;90.68;101783.59;5096062;28;20122;-43
2022/05/18 04:18:10;;;;;;;50.45;26.83;;;;;;;14.46;90.54;101783.75;5096840;28;20158;-45
2022/05/18 04:20:35;;;;;;;51.75;25.85;;;;;;;14.55;89.94;101783.13;5096780;28;20032;-41
2022/05/18 04:23:01;;;;;;;48.88;25.98;;;;;;;14.65;89.44;101787.78;5095933;28;20062;-46
2022/05/18 04:25:28;;;;;;;48.17;26.25;;;;;;;14.77;88.93;101795.91;5096804;28;20020;-43
2022/05/18 04:27:54;;;;;;;49.30;26.15;;;;;;;14.90;88.10;101796.22;5096443;28;20433;-41
2022/05/18 04:30:21;;;;;;;47.10;24.38;;;;;;;15.01;87.81;101792.22;5096219;28;20028;-42
2022/05/18 04:32:47;;;;;;;52.65;24.88;;;;;;;15.13;87.53;101797.72;5096415;28;20047;-41
2022/05/18 04:35:14;;;;;;;43.90;24.73;;;;;;;15.26;86.54;101803.22;5096724;28;20016;-42
2022/05/18 04:37:40;;;;;;;47.10;24.58;;;;;;;15.37;85.81;101796.59;5095449;28;20020;-44
2022/05/18 04:40:06;;;;;;;41.95;25.30;;;;;;;15.51;85.36;101798.66;5096569;28;20490;-46
2022/05/18 04:42:32;;;;;;;44.78;24.83;;;;;;;15.61;85.22;101798.06;5096194;28;20109;-41
2022/05/18 04:44:57;;;;;;;48.88;23.10;;;;;;;15.72;85.03;101796.56;5095591;28;20044;-40
2022/05/18 04:47:25;;;;;;;45.72;23.20;;;;;;;15.81;84.33;101803.75;5096447;28;20107;-42
2022/05/18 04:49:51;;;;;;;51.65;24.10;;;;;;;15.89;83.59;101801.31;5095991;28;20493;-43
2022/05/18 04:52:20;;;;;;;45.75;24.08;;;;;;;15.95;82.63;101817.06;5095313;28;20048;-44
2022/05/18 04:54:45;;;;;;;46.65;23.00;;;;;;;15.99;82.68;101818.88;5095971;28;20016;-47
2022/05/18 04:57:11;;;;;;;43.83;23.52;;;;;;;16.02;82.49;101818.94;5096047;28;20027;-42
2022/05/18 04:59:37;;;;;;;40.20;23.58;;;;;;;16.03;82.46;101818.09;5095271;28;20042;-44
2022/05/18 05:02:02;;;;;;;44.05;23.40;;;;;;;16.09;82.28;101820.84;5096154;28;20040;-46
2022/05/18 05:04:28;;;;;;;40.75;22.52;;;;;;;16.11;81.69;101831.28;5095635;28;20051;-43
2022/05/18 05:06:53;;;;;;;41.15;22.17;;;;;;;16.12;81.81;101841.72;5095727;28;20028;-46
2022/05/18 05:09:22;;;;;;;40.33;21.60;;;;;;;16.18;81.07;101834.88;5095727;28;20390;-42
2022/05/18 05:11:47;;;;;;;41.28;22.02;;;;;;;16.23;80.94;101834.16;5094908;28;20089;-41
2022/05/18 05:14:12;;;;;;;40.55;21.27;;;;;;;16.30;81.77;101829.97;5095984;28;20019;-45
2022/05/18 05:16:38;;;;;;;37.88;20.15;;;;;;;16.42;80.97;101847.56;5095602;28;20027;-45
2022/05/18 05:19:03;;;;;;;37.28;21.52;;;;;;;16.58;80.32;101840.97;5095093;28;20032;-47
2022/05/18 05:21:28;;;;;;;42.15;21.55;;;;;;;16.76;80.28;101845.69;5095725;28;20054;-45
2022/05/18 05:23:54;;;;;;;35.55;19.88;;;;;;;16.98;79.17;101840.91;5094894;28;20103;-41
2022/05/18 05:26:19;;;;;;;37.45;19.40;;;;;;;17.18;77.64;101843.88;5094867;28;20089;-45
2022/05/18 05:28:44;;;;;;;39.85;18.45;;;;;;;17.35;76.29;101846.78;5095477;28;20470;-43
2022/05/18 05:31:11;;;;;;;38.63;18.00;;;;;;;17.55;75.20;101852.34;5095387;28;20067;-43
2022/05/18 05:33:39;;;;;;;36.38;15.88;;;;;;;17.73;74.72;101849.19;5094622;28;20122;-42
2022/05/18 05:36:06;;;;;;;34.78;15.05;;;;;;;17.89;73.33;101851.13;5095457;28;20099;-42
2022/05/18 05:38:31;;;;;;;33.17;14.75;;;;;;;18.00;71.66;101853.97;5095292;28;20032;-47
2022/05/18 05:40:59;;;;;;;26.67;14.60;;;;;;;18.12;71.13;101855.88;5094489;28;20082;-44
2022/05/18 05:43:24;;;;;;;;;;;;;;;18.18;73.03;101853.34;5095700;28;20546;-46
2022/05/18 05:46:01;;;;;;;28.10;13.47;;;;;;;18.26;71.30;101861.28;5095179;28;19912;-42
2022/05/18 05:48:27;;;;;;;26.75;14.25;;;;;;;18.32;69.70;101853.56;5094404;28;20467;-44
2022/05/18 05:50:53;;;;;;;26.23;13.10;;;;;;;18.41;69.60;101858.00;5094731;28;20051;-41
2022/05/18 05:53:19;;;;;;;22.70;12.85;;;;;;;18.49;69.82;101868.53;5095035;28;20506;-41
2022/05/18 05:55:44;;;;;;;23.48;12.35;;;;;;;18.57;70.07;101865.19;5094335;28;20445;-45
2022/05/18 05:58:09;;;;;;;22.58;12.18;;;;;;;18.72;69.43;101869.72;5095100;28;20458;-42
2022/05/18 06:00:36;;;;;;;27.13;12.63;;;;;;;18.85;68.66;101875.06;5094907;28;20035;-46
2022/05/18 06:03:01;;;;;;;28.08;12.93;;;;;;;18.98;68.22;101869.19;5094071;28;20031;-41
2022/05/18 06:05:28;;;;;;;25.20;11.98;;;;;;;19.12;67.43;101865.84;5094851;28;20024;-42
2022/05/18 06:07:53;;;;;;;29.40;13.35;;;;;;;19.23;67.01;101872.06;5093797;28;20081;-41
2022/05/18 06:10:20;;;;;;;21.45;11.80;;;;;;;19.32;66.69;101876.50;5095009;28;20028;-41
2022/05/18 06:12:45;;;;;;;29.37;12.50;;;;;;;19.38;65.89;101874.81;5094549;28;20062;-46
2022/05/18 06:15:10;;;;;;;27.30;12.30;;;;;;;19.45;65.48;101885.34;5094062;28;20072;-42
2022/05/18 06:17:36;;;;;;;24.30;12.05;;;;;;;19.48;65.30;101882.75;5094611;28;20030;-42
2022/05/18 06:20:01;;;;;;;23.85;12.35;;;;;;;19.54;65.41;101880.19;5094486;28;20532;-43
2022/05/18 06:22:26;;;;;;;24.13;11.88;;;;;;;19.56;64.91;101884.56;5093680;28;20056;-47
2022/05/18 06:24:52;;;;;;;34.40;12.48;;;;;;;19.61;65.24;101886.34;5094440;28;20054;-41
2022/05/18 06:27:19;;;;;;;28.48;12.05;;;;;;;19.66;64.94;101898.59;5094287;28;20433;-42
2022/05/18 06:29:45;;;;;;;27.88;11.05;;;;;;;19.71;64.78;101909.97;5093506;28;20024;-45
2022/05/18 06:32:11;;;;;;;25.30;11.50;;;;;;;19.77;64.46;101908.25;5094299;28;20042;-45
2022/05/18 06:34:36;;;;;;;26.15;11.32;;;;;;;19.80;64.59;101897.84;5093811;28;20016;-43
2022/05/18 06:37:03;;;;;;;27.45;11.65;;;;;;;19.87;64.80;101904.88;5093116;28;20352;-44
2022/05/18 06:39:29;;;;;;;20.73;11.77;;;;;;;19.93;64.14;101911.94;5094023;28;20467;-47
2022/05/18 06:41:54;;;;;;;26.92;12.52;;;;;;;19.94;64.19;101911.06;5094169;28;20020;-44
2022/05/18 06:44:20;;;;;;;27.90;13.60;;;;;;;20.02;64.06;101910.22;5093244;28;20036;-46
2022/05/18 06:46:47;;;;;;;23.33;12.40;;;;;;;20.04;63.45;101913.75;5093826;28;20035;-46
2022/05/18 06:49:13;;;;;;;27.58;12.55;;;;;;;20.12;63.51;101921.66;5094071;28;20047;-47
2022/05/18 06:51:41;;;;;;;28.35;13.10;;;;;;;20.19;63.07;101922.56;5092541;28;20090;-45
2022/05/18 06:54:07;;;;;;;31.15;12.35;;;;;;;20.21;63.25;101920.84;5094100;28;20024;-42
2022/05/18 06:56:35;;;;;;;25.00;11.35;;;;;;;20.21;62.22;101926.09;5094021;28;20073;-41
2022/05/18 06:59:01;;;;;;;25.40;12.13;;;;;;;20.19;61.02;101922.56;5093116;28;20020;-42
2022/05/18 07:01:28;;;;;;;25.88;12.00;;;;;;;20.17;61.29;101925.19;5093826;28;20344;-43
2022/05/18 07:03:53;;;;;;;30.42;12.77;;;;;;;20.16;60.96;101922.56;5093602;28;20095;-42
2022/05/18 07:06:22;;;;;;;31.13;12.68;;;;;;;20.10;61.20;101930.38;5092954;28;20106;-47
2022/05/18 07:08:48;;;;;;;28.08;12.60;;;;;;;20.04;61.87;101928.59;5093497;28;20032;-44
2022/05/18 07:11:13;;;;;;;32.67;12.82;;;;;;;20.00;61.82;101932.91;5092978;28;20028;-44
2022/05/18 07:13:39;;;;;;;32.92;14.38;;;;;;;19.96;62.74;101944.22;5093411;28;20035;-43
2022/05/18 07:16:05;;;;;;;31.58;13.82;;;;;;;19.91;62.36;101943.31;5093525;28;20371;-43
2022/05/18 07:18:32;;;;;;;35.90;15.82;;;;;;;19.83;62.86;101951.09;5092632;28;20020;-43
2022/05/18 07:20:58;;;;;;;34.10;17.43;;;;;;;19.87;63.63;101941.50;5093535;28;20039;-44
2022/05/18 07:23:25;;;;;;;34.75;18.67;;;;;;;20.02;62.78;101946.88;5093614;28;20035;-43
2022/05/18 07:25:52;;;;;;;41.30;18.93;;;;;;;20.25;63.09;101948.78;5092586;28;20027;-42
2022/05/18 07:28:18;;;;;;;46.13;20.83;;;;;;;20.46;62.29;101948.03;5093472;28;20266;-43
2022/05/18 07:30:43;;;;;;;48.40;20.73;;;;;;;20.72;62.42;101958.72;5093061;28;20046;-44
2022/05/18 07:33:08;;;;;;;43.17;20.15;;;;;;;20.98;61.40;101951.84;5092415;28;20024;-42
2022/05/18 07:35:34;;;;;;;34.50;18.75;;;;;;;21.26;60.86;101952.81;5093078;28;20020;-44
2022/05/18 07:37:59;;;;;;;39.92;19.48;;;;;;;21.48;60.71;101961.59;5093269;28;20103;-43
2022/05/18 07:40:25;;;;;;;43.78;18.88;;;;;;;21.71;60.22;101956.41;5092539;28;20040;-42
2022/05/18 07:42:54;;;;;;;42.92;17.67;;;;;;;21.96;60.77;101945.03;5092960;28;20028;-46
2022/05/18 07:45:21;;;;;;;33.75;17.70;;;;;;;21.97;60.63;101952.91;5093180;28;20035;-44
2022/05/18 07:47:46;;;;;;;31.30;16.65;;;;;;;22.10;59.63;101952.94;5091978;28;20039;-43
2022/05/18 07:50:12;;;;;;;35.45;15.35;;;;;;;22.20;59.50;101954.66;5092888;28;20021;-43
2022/05/18 07:52:38;;;;;;;33.15;15.90;;;;;;;22.12;59.08;101956.44;5092617;28;20044;-42
2022/05/18 07:55:04;;;;;;;33.40;15.50;;;;;;;22.11;59.85;101954.69;5092406;28;20370;-43
2022/05/18 07:57:29;;;;;;;29.95;14.95;;;;;;;22.19;59.57;101961.69;5093105;28;20115;-43
2022/05/18 07:59:56;;;;;;;34.95;16.25;;;;;;;22.60;59.10;101962.50;5092889;28;20024;-43
2022/05/18 08:02:21;;;;;;;24.33;13.50;;;;;;;22.80;57.86;101972.06;5092099;28;20039;-46
2022/05/18 08:04:46;;;;;;;31.42;15.10;;;;;;;23.06;57.18;101965.81;5092870;28;20031;-45
2022/05/18 08:07:12;;;;;;;38.80;17.03;;;;;;;22.89;56.11;101972.03;5093018;28;20020;-47
2022/05/18 08:15:05;;;;;;;37.47;16.40;;;;;;;22.60;57.05;101969.50;5091850;28;20304;-47
2022/05/18 08:15:07;;;;;;;41.47;18.10;;;;;;;22.13;58.39;101985.31;5092623;28;20034;-47
2022/05/18 08:17:32;;;;;;;35.10;16.83;;;;;;;22.01;59.30;101985.28;5092930;28;20091;-48
2022/05/18 08:19:57;;;;;;;32.92;17.92;;;;;;;22.02;59.74;101982.66;5092863;28;20024;-44
2022/05/18 08:22:22;;;;;;;34.17;17.30;;;;;;;22.19;59.56;101987.03;5092239;28;20070;-43
2022/05/18 08:24:48;;;;;;;38.55;17.98;;;;;;;22.26;59.22;101970.41;5092603;28;20028;-43
2022/05/18 08:27:16;;;;;;;39.05;17.00;;;;;;;22.52;60.22;101972.16;5092639;28;20016;-43
2022/05/18 08:29:41;;;;;;;37.92;17.85;;;;;;;22.66;58.54;101965.09;5091664;28;20024;-47
2022/05/18 08:32:06;;;;;;;38.78;17.55;;;;;;;22.74;58.14;101966.84;5092757;28;20154;-45
2022/05/18 08:34:33;;;;;;;39.00;17.83;;;;;;;22.75;57.76;101976.47;5092778;28;20020;-48
2022/05/18 08:36:58;;;;;;;34.90;17.50;;;;;;;22.80;58.31;101977.31;5091812;28;20395;-44
2022/05/18 08:39:24;;;;;;;33.38;17.20;;;;;;;22.85;57.81;101983.44;5092766;28;20494;-44
2022/05/18 08:41:51;;;;;;;34.30;17.07;;;;;;;22.84;58.95;101985.19;5092340;28;20482;-42
2022/05/18 08:44:28;;;;;;;34.78;17.40;;;;;;;22.93;58.49;101984.28;5092082;28;20274;-42
2022/05/18 08:47:42;;;;;;;32.40;16.67;;;;;;;23.04;57.96;101980.75;5092531;28;20055;-47
2022/05/18 08:50:19;;;;;;;38.58;17.35;;;;;;;22.98;58.07;101987.78;5069322;28;20087;-45
2022/05/18 08:53:15;;;;;;;30.70;16.38;;;;;;;23.08;58.64;101991.22;5090801;28;20052;-47
2022/05/18 08:55:48;;;;;;;32.47;16.17;;;;;;;23.25;58.53;101988.53;5092125;28;20437;-43
2022/05/18 08:58:32;;;;;;;29.70;14.32;;;;;;;23.38;57.80;101981.47;5091914;28;20024;-45
2022/05/18 09:01:04;;;;;;;30.88;16.48;;;;;;;23.46;58.02;101981.41;5095941;28;20111;-46
2022/05/18 09:03:36;;;;;;;32.25;17.48;;;;;;;23.51;56.31;101987.53;5096121;28;20028;-47
2022/05/18 09:06:29;;;;;;;30.92;16.70;;;;;;;23.69;57.75;101989.16;5095972;28;20028;-46
2022/05/18 09:11:51;;;;;;;28.58;13.95;;;;;;;24.17;55.52;101994.09;5095129;28;20067;-45
2022/05/18 09:14:20;;;;;;;28.73;15.05;;;;;;;24.19;54.99;101996.72;5095992;28;20099;-42
2022/05/18 09:16:59;;;;;;;32.42;17.65;;;;;;;24.18;54.38;101993.19;5095526;28;20112;-43
2022/05/18 09:19:37;;;;;;;32.95;17.45;;;;;;;24.05;54.98;101991.56;5094965;28;20024;-41
2022/05/18 09:22:23;;;;;;;28.80;15.57;;;;;;;24.36;56.40;101983.38;5095929;28;20035;-43
2022/05/18 09:24:59;;;;;;;28.40;14.10;;;;;;;24.56;53.10;101989.31;5094811;28;20024;-44
2022/05/18 09:27:43;;;;;;;29.98;15.80;;;;;;;25.04;52.92;101980.00;5095641;28;20119;-43
2022/05/18 09:30:19;;;;;;;36.65;16.40;;;;;;;25.44;52.49;101992.69;5095764;28;20027;-45
2022/05/18 09:33:06;;;;;;;25.98;15.38;;;;;;;25.59;51.85;101994.22;5094576;28;20118;-41
2022/05/18 09:35:52;;;;;;;33.95;17.13;;;;;;;25.85;50.77;102000.84;5095541;28;20108;-42
2022/05/18 09:38:31;;;;;;;33.30;16.15;;;;;;;25.94;50.60;101987.53;5095436;28;20030;-43
2022/05/18 09:41:00;;;;;;;23.83;11.02;;;;;;;26.00;50.52;101997.97;5094482;28;20391;-44
2022/05/18 09:43:37;;;;;;;17.83;8.77;;;;;;;26.06;48.00;101994.41;5095518;28;20032;-43
2022/05/18 09:46:03;;;;;;;19.08;8.38;;;;;;;25.92;48.58;101995.44;5094594;28;20036;-44
2022/05/18 09:48:47;;;;;;;23.20;9.35;;;;;;;26.05;49.20;101995.28;5095141;28;20031;-43
2022/05/18 09:51:12;;;;;;;20.80;10.88;;;;;;;26.25;47.80;101993.16;5095094;28;20048;-42
2022/05/18 09:53:40;;;;;;;19.23;8.82;;;;;;;26.88;48.05;101996.41;5094261;28;20043;-42
2022/05/18 09:56:09;;;;;;;;;;;;;;;27.26;48.37;101991.19;5095571;28;20040;-43
2022/05/18 09:58:38;;;;;;;20.30;7.53;;;;;;;27.50;44.93;101992.47;5094944;28;20268;-44
2022/05/18 10:09:49;;;;;;;17.00;7.30;;;;;;;28.66;44.41;102001.91;5094942;28;20047;-43
2022/05/18 10:12:30;;;;;;;24.33;6.97;;;;;;;29.30;42.45;101998.31;5094566;28;20383;-42
2022/05/18 10:15:03;;;;;;;17.20;6.07;;;;;;;30.09;40.49;101999.31;5093924;28;20038;-45
2022/05/18 10:17:35;;;;;;;15.13;6.03;;;;;;;30.37;38.84;101998.34;5094725;28;20047;-43
2022/05/18 10:20:10;;;;;;;16.05;5.85;;;;;;;30.58;38.70;101998.53;5094437;28;20040;-43
2022/05/18 10:22:41;;;;;;;13.07;5.13;;;;;;;31.07;36.88;101995.84;5094028;28;20089;-42
2022/05/18 10:25:32;;;;;;;12.55;4.75;;;;;;;31.62;36.40;101992.78;5094708;28;20028;-43
2022/05/18 10:27:57;;;;;;;9.27;4.20;;;;;;;32.06;34.43;101994.50;5094243;28;20020;-43
2022/05/18 10:30:34;;;;;;;9.25;3.38;;;;;;;32.42;32.32;101997.41;5093852;28;20020;-42
2022/05/18 10:33:03;;;;;;;;;;;;;;;33.09;34.59;101997.03;5094451;28;20417;-43
2022/05/18 10:35:48;;;;;;;13.18;3.60;;;;;;;33.19;33.96;101997.47;5093568;28;19966;-43
2022/05/18 10:38:30;;;;;;;10.20;4.50;;;;;;;32.94;32.86;101999.50;5094315;28;20032;-46
2022/05/18 10:41:11;;;;;;;7.93;3.30;;;;;;;32.90;33.54;101991.69;5094003;28;20069;-43
2022/05/18 10:43:42;;;;;;;17.33;5.40;;;;;;;33.25;31.22;101986.50;5093356;28;20046;-43
2022/05/18 10:46:28;;;;;;;13.50;4.47;;;;;;;33.04;31.18;101983.91;5094036;28;20402;-44
2022/05/18 10:48:58;;;;;;;;;;;;;;;33.24;32.14;101984.75;5094379;28;20051;-43
2022/05/18 10:51:43;;;;;;;12.70;3.67;;;;;;;32.99;32.67;101980.59;5092907;28;20413;-42
2022/05/18 10:54:38;;;;;;;10.18;3.60;;;;;;;33.55;30.85;101981.47;5093898;28;20489;-43
2022/05/18 10:57:17;;;;;;;9.68;3.15;;;;;;;34.21;30.63;101971.03;5090957;28;20032;-43
2022/05/18 10:59:51;;;;;;;14.15;3.67;;;;;;;34.36;29.68;101970.25;5093689;28;20527;-43
2022/05/18 11:02:29;;;;;;;13.13;3.58;;;;;;;34.97;29.41;101975.88;5094000;28;20032;-44
2022/05/18 11:05:08;;;;;;;7.35;3.40;;;;;;;35.05;28.36;101978.13;5093020;28;20046;-42
2022/05/18 11:07:33;;;;;;;8.52;3.65;;;;;;;35.01;27.49;101980.13;5093586;28;20480;-44
2022/05/18 11:09:59;;;;;;;9.67;4.07;;;;;;;34.95;27.63;101983.13;5093423;28;20099;-44
2022/05/18 11:12:39;;;;;;;13.07;4.20;;;;;;;35.14;28.50;101971.41;5093109;28;20028;-45
2022/05/18 11:15:09;;;;;;;13.93;3.58;;;;;;;34.40;28.11;101970.94;5093758;28;20031;-43
2022/05/18 11:18:22;;;;;;;11.25;5.20;;;;;;;34.19;29.71;101972.91;5092612;28;20831;-43
2022/05/18 11:21:12;;;;;;;15.68;4.03;;;;;;;33.85;30.47;101967.50;5055716;28;20045;-44
2022/05/18 11:23:56;;;;;;;10.13;4.43;;;;;;;34.31;29.99;101956.22;5093319;28;20039;-43
2022/05/18 11:26:34;;;;;;;9.88;4.40;;;;;;;35.11;28.09;101951.84;5092714;28;20085;-43
2022/05/18 11:29:25;;;;;;;8.63;4.80;;;;;;;35.34;27.32;101957.72;5093529;28;20020;-46
2022/05/18 11:32:06;;;;;;;10.45;5.18;;;;;;;34.69;28.68;101969.34;5092412;28;20024;-45
2022/05/18 11:34:43;;;;;;;12.65;4.72;;;;;;;35.32;28.11;101950.72;5093338;28;20035;-43
2022/05/18 11:37:14;;;;;;;9.98;3.83;;;;;;;35.77;29.10;101960.53;5093591;28;20065;-45
2022/05/18 11:39:42;;;;;;;14.05;5.53;;;;;;;35.39;27.65;101961.00;5092394;28;20035;-43